Time;durP1;ratioP1;P1;durP2;ratioP2;P2;SDS_P1;SDS_P2;PMS_P1;PMS_P2;Temp;Humidity;BMP_temperature;BMP_pressure;BME280_temperature;BME280_humidity;BME280_pressure;Samples;Min_cycle;Max_cycle;Signal;HPM_P1;HPM_P2
2022/12/20 01:36:31;;;;;;;;;;;;;;;;;;;;;
2022/12/20 01:43:06;;;;;;;2.23;2.03;;;;;;;7.16;86.89;95979.31;4743910;30;20284;-88
2022/12/20 02:23:44;;;;;;;;;;;;;;;;;;;;;
2022/12/20 02:41:00;;;;;;;;;;;;;;;;;;;;;
2022/12/20 06:31:19;;;;;;;2.33;1.83;;;;;;;7.75;80.64;95823.94;4787735;30;20223;-89
2022/12/20 06:34:38;;;;;;;2.67;2.47;;;;;;;7.79;80.14;95826.16;4784307;30;20305;-88
2022/12/20 06:57:39;;;;;;;3.97;2.10;;;;;;;7.73;80.36;95826.66;4813220;29;20237;-87
2022/12/20 07:00:09;;;;;;;2.33;1.97;;;;;;;7.73;80.36;95829.25;4782974;29;20198;-87
2022/12/20 07:02:42;;;;;;;2.60;2.40;;;;;;;7.76;80.35;95823.81;4789658;29;20734;-87
2022/12/20 07:05:07;;;;;;;3.30;2.33;;;;;;;7.76;80.21;95823.00;4789582;29;20217;-87
2022/12/20 07:07:44;;;;;;;2.17;1.97;;;;;;;7.75;80.18;95811.84;4773820;29;20919;-89
2022/12/20 07:10:10;;;;;;;2.77;2.33;;;;;;;7.75;79.72;95808.44;4786245;29;20766;-87
2022/12/20 07:12:35;;;;;;;4.27;2.00;;;;;;;7.76;79.86;95808.31;4800089;29;20194;-88
2022/12/20 07:15:01;;;;;;;2.87;2.20;;;;;;;7.84;80.07;95811.09;4771130;29;20231;-85
2022/12/20 07:17:27;;;;;;;2.90;1.93;;;;;;;7.84;79.53;95807.69;4796712;29;20249;-85
2022/12/20 07:19:52;;;;;;;2.77;2.00;;;;;;;7.86;79.88;95805.78;4795516;29;20222;-89
2022/12/20 07:22:22;;;;;;;2.97;1.77;;;;;;;7.85;79.61;95798.97;4805824;29;20282;-88
2022/12/20 07:24:50;;;;;;;3.47;1.80;;;;;;;7.97;79.13;95799.75;4773668;29;20218;-88
2022/12/20 07:27:15;;;;;;;3.17;1.97;;;;;;;7.80;79.80;95804.53;4771302;29;22014;-87
2022/12/20 07:29:40;;;;;;;2.30;2.10;;;;;;;7.90;79.00;95802.03;4778281;29;20191;-87
2022/12/20 07:32:06;;;;;;;2.00;1.80;;;;;;;7.82;79.67;95807.00;4795898;29;20196;-89
2022/12/20 07:34:38;;;;;;;3.90;1.90;;;;;;;7.89;79.42;95800.38;4804797;29;20283;-88
2022/12/20 07:37:03;;;;;;;2.83;1.70;;;;;;;7.91;79.10;95799.31;4788329;29;20247;-86
2022/12/20 07:39:28;;;;;;;2.00;1.80;;;;;;;7.87;79.40;95804.88;4785649;29;20194;-88
2022/12/20 07:41:54;;;;;;;4.83;2.17;;;;;;;7.78;79.35;95811.59;4785519;29;20244;-88
2022/12/20 07:44:21;;;;;;;2.87;2.27;;;;;;;7.90;78.78;95809.78;4788722;29;20234;-88
2022/12/20 07:46:46;;;;;;;4.00;2.43;;;;;;;7.82;79.47;95804.41;4796173;29;20208;-89
2022/12/20 07:49:12;;;;;;;2.43;2.23;;;;;;;7.78;79.54;95790.91;4768290;29;20642;-88
2022/12/20 07:51:40;;;;;;;2.40;1.73;;;;;;;7.90;79.27;95807.19;4782944;29;20190;-88
2022/12/20 07:54:11;;;;;;;2.40;2.07;;;;;;;7.91;78.92;95804.47;4799733;29;20202;-88
2022/12/20 07:56:41;;;;;;;2.93;2.20;;;;;;;7.83;79.38;95793.94;4772423;30;20293;-89
2022/12/20 07:59:13;;;;;;;2.47;2.17;;;;;;;7.88;79.21;95794.41;4788020;29;20313;-87
2022/12/20 08:01:40;;;;;;;2.10;1.90;;;;;;;7.73;79.52;95793.03;4791397;29;20274;-88
2022/12/20 08:04:12;;;;;;;2.60;1.97;;;;;;;7.82;79.65;95791.47;4776910;30;20260;-88
2022/12/20 08:06:39;;;;;;;3.30;2.00;;;;;;;7.74;80.29;95783.53;4778009;29;20211;-88
2022/12/20 08:09:05;;;;;;;2.07;1.83;;;;;;;7.79;79.81;95781.41;4787707;29;20238;-88
2022/12/20 08:11:35;;;;;;;2.13;1.80;;;;;;;7.71;80.79;95776.03;4786177;29;20566;-88
2022/12/20 08:14:01;;;;;;;4.70;2.10;;;;;;;7.76;80.59;95768.69;4784250;29;20587;-88
2022/12/20 08:16:26;;;;;;;2.40;1.63;;;;;;;7.71;81.08;95776.03;4781032;29;20264;-87
2022/12/20 08:18:54;;;;;;;3.00;1.90;;;;;;;7.72;80.98;95775.91;4788177;29;20201;-86
2022/12/20 08:21:19;;;;;;;2.53;1.90;;;;;;;7.89;80.23;95779.69;4777558;29;20191;-86
2022/12/20 08:23:45;;;;;;;2.17;1.80;;;;;;;7.85;80.45;95775.72;4794395;29;20221;-88
2022/12/20 08:26:10;;;;;;;3.07;1.70;;;;;;;7.86;80.13;95779.94;4788998;29;20711;-85
2022/12/20 08:28:35;;;;;;;1.80;1.70;;;;;;;7.91;80.24;95782.97;4775958;29;20728;-86
2022/12/20 08:31:05;;;;;;;3.47;2.10;;;;;;;7.94;80.30;95777.53;4799204;29;20194;-84
2022/12/20 08:33:32;;;;;;;2.33;1.73;;;;;;;8.04;79.99;95775.88;4783834;29;20198;-87
2022/12/20 08:36:03;;;;;;;2.40;1.83;;;;;;;8.19;79.19;95773.75;4798496;29;20212;-88
2022/12/20 08:38:29;;;;;;;2.03;1.83;;;;;;;8.23;78.56;95765.63;4796458;29;20190;-89
2022/12/20 08:40:55;;;;;;;4.63;2.10;;;;;;;8.30;78.52;95763.31;4799090;29;20206;-88
2022/12/20 08:43:21;;;;;;;3.50;2.10;;;;;;;8.31;78.28;95769.34;4781549;29;20293;-89
2022/12/20 08:45:52;;;;;;;2.63;1.80;;;;;;;8.35;78.20;95763.81;4786457;29;20218;-89
2022/12/20 08:48:18;;;;;;;2.40;2.00;;;;;;;8.42;77.91;95754.59;4810794;29;20194;-88
2022/12/20 08:50:43;;;;;;;2.07;1.87;;;;;;;8.46;77.56;95758.53;4786258;29;20243;-89
2022/12/20 08:53:08;;;;;;;2.03;1.87;;;;;;;8.42;77.70;95764.94;4801431;29;20253;-86
2022/12/20 08:55:34;;;;;;;2.30;2.10;;;;;;;8.49;77.23;95760.06;4777119;29;20218;-89
2022/12/20 08:57:59;;;;;;;5.27;2.13;;;;;;;8.67;76.19;95758.50;4782577;29;20284;-85
2022/12/20 09:00:24;;;;;;;2.77;2.03;;;;;;;8.76;76.08;95754.31;4778783;29;20190;-87
2022/12/20 09:02:50;;;;;;;3.20;2.17;;;;;;;8.79;75.69;95756.63;4778339;29;20293;-87
2022/12/20 09:05:18;;;;;;;3.80;2.23;;;;;;;8.79;75.86;95744.50;4794631;29;20292;-87
2022/12/20 09:07:46;;;;;;;2.30;2.00;;;;;;;8.83;76.00;95752.00;4776415;29;20191;-86
2022/12/20 09:10:12;;;;;;;2.27;1.90;;;;;;;8.85;76.01;95748.34;4793625;29;20186;-87
2022/12/20 09:12:38;;;;;;;2.90;2.03;;;;;;;8.83;75.91;95755.41;4788048;29;20531;-86
2022/12/20 09:15:06;;;;;;;4.13;2.40;;;;;;;9.08;75.09;95754.94;4787785;29;20191;-86
2022/12/20 09:17:31;;;;;;;2.50;2.30;;;;;;;9.10;74.32;95749.63;4786297;29;20190;-88
2022/12/20 09:19:57;;;;;;;2.50;1.73;;;;;;;9.18;73.74;95749.75;4774994;29;20633;-88
2022/12/20 09:22:23;;;;;;;2.70;2.00;;;;;;;8.92;73.93;95753.78;4774177;29;20195;-86
2022/12/20 09:24:48;;;;;;;2.70;1.93;;;;;;;9.03;73.96;95740.75;4786077;29;20252;-88
2022/12/20 09:27:14;;;;;;;2.90;2.20;;;;;;;9.13;74.16;95746.78;4770343;29;20714;-87
2022/12/20 09:29:39;;;;;;;2.77;2.10;;;;;;;8.92;74.68;95748.63;4778173;29;20194;-87
2022/12/20 09:32:05;;;;;;;3.03;2.40;;;;;;;8.97;74.25;95751.63;4780209;29;20674;-87
2022/12/20 09:34:30;;;;;;;5.07;2.70;;;;;;;8.87;74.25;95750.81;4786856;29;20541;-86
2022/12/20 09:36:56;;;;;;;2.60;2.40;;;;;;;8.71;75.05;95757.28;4780467;29;20579;-86
2022/12/20 09:39:21;;;;;;;3.97;2.67;;;;;;;8.56;75.33;95753.41;4786817;29;20207;-87
2022/12/20 09:41:46;;;;;;;4.03;2.90;;;;;;;8.40;76.04;95759.06;4792233;29;20194;-86
2022/12/20 09:44:25;;;;;;;3.77;3.00;;;;;;;8.32;76.45;95755.47;4783950;29;20447;-87
2022/12/20 09:46:54;;;;;;;2.97;2.60;;;;;;;8.36;75.94;95747.31;4774981;29;20254;-88
2022/12/20 09:49:27;;;;;;;3.87;2.50;;;;;;;8.52;75.72;95741.69;4772758;30;20183;-88
2022/12/20 09:52:34;;;;;;;2.77;2.53;;;;;;;8.61;75.53;95735.72;4787688;29;20187;-88
2022/12/20 09:55:30;;;;;;;5.17;2.70;;;;;;;8.47;75.25;95749.81;4804754;29;20447;-89
2022/12/20 09:58:33;;;;;;;4.17;2.87;;;;;;;8.49;75.62;95739.38;4808320;29;20202;-88
2022/12/20 10:01:11;;;;;;;3.83;2.63;;;;;;;8.66;75.40;95733.56;4802400;29;20191;-86
2022/12/20 10:03:40;;;;;;;3.07;2.40;;;;;;;8.72;75.41;95729.63;4792095;29;20660;-88
2022/12/20 10:06:45;;;;;;;3.83;3.30;;;;;;;8.86;74.68;95728.44;4782172;29;20247;-89
2022/12/20 10:09:39;;;;;;;4.20;2.73;;;;;;;8.81;74.82;95734.00;4807881;29;20241;-89
2022/12/20 10:13:08;;;;;;;4.10;3.07;;;;;;;8.92;74.81;95728.75;4775657;29;20188;-88
2022/12/20 10:15:41;;;;;;;4.10;3.33;;;;;;;9.09;73.11;95725.47;4745404;29;20229;-88
2022/12/20 10:18:41;;;;;;;3.27;2.53;;;;;;;9.21;72.67;95722.78;4787764;29;20204;-88
2022/12/20 10:21:17;;;;;;;4.33;3.70;;;;;;;9.18;72.36;95710.91;4826266;29;20297;-88
2022/12/20 10:23:53;;;;;;;3.70;3.33;;;;;;;9.35;72.68;95723.19;4824392;29;20202;-88
2022/12/20 10:26:30;;;;;;;6.30;5.10;;;;;;;9.19;72.60;95728.09;4798976;29;20221;-88
2022/12/20 10:28:55;;;;;;;6.97;4.20;;;;;;;9.08;72.91;95730.78;4798622;29;20285;-88
2022/12/20 10:31:21;;;;;;;6.17;5.57;;;;;;;9.05;73.10;95728.47;4786822;29;20663;-88
2022/12/20 10:39:59;;;;;;;4.50;3.10;;;;;;;9.14;72.95;95706.13;5092221;24;20314;-89
2022/12/20 10:42:29;;;;;;;6.37;3.03;;;;;;;9.26;73.25;95705.03;4785210;29;20186;-87
2022/12/20 10:44:55;;;;;;;4.63;3.33;;;;;;;9.34;73.22;95707.78;4783418;29;20375;-88
2022/12/20 10:47:32;;;;;;;7.17;2.90;;;;;;;9.29;72.98;95703.00;4772343;30;20426;-87
2022/12/20 10:50:19;;;;;;;3.83;3.20;;;;;;;9.35;72.88;95699.84;4782669;30;20195;-88
2022/12/20 10:57:40;;;;;;;3.03;2.67;;;;;;;9.36;72.79;95685.97;4767725;30;20224;-89
2022/12/20 11:00:18;;;;;;;3.30;2.83;;;;;;;9.35;72.97;95675.72;4733341;30;20289;-88
2022/12/20 11:03:23;;;;;;;2.87;2.40;;;;;;;9.36;72.93;95674.75;4719993;30;20202;-87
2022/12/20 11:05:58;;;;;;;3.03;2.63;;;;;;;9.34;73.48;95666.31;4730777;30;20248;-87
2022/12/20 11:08:27;;;;;;;3.80;3.50;;;;;;;9.36;73.23;95662.66;4715500;30;20206;-87
2022/12/20 11:11:17;;;;;;;6.40;4.57;;;;;;;9.47;73.37;95661.69;4706596;30;20256;-86
2022/12/20 11:14:06;;;;;;;;;;;;;;;;;;;;;
2022/12/20 11:16:50;;;;;;;6.77;5.00;;;;;;;9.45;73.42;95681.72;4701747;30;20221;-88
2022/12/20 11:19:30;;;;;;;5.37;4.00;;;;;;;9.47;73.31;95671.22;4700139;30;20193;-88
2022/12/20 11:22:17;;;;;;;6.20;4.80;;;;;;;9.47;73.08;95655.69;4695758;30;20268;-88
2022/12/20 11:24:58;;;;;;;5.60;4.10;;;;;;;9.39;73.10;95650.38;4683443;30;20219;-88
2022/12/20 11:27:28;;;;;;;5.53;3.60;;;;;;;9.30;72.95;95631.28;4689988;30;20216;-89
2022/12/20 11:30:01;;;;;;;3.13;2.83;;;;;;;9.31;73.86;95640.69;4697027;30;20299;-89
2022/12/20 11:33:01;;;;;;;3.03;2.33;;;;;;;9.26;73.79;95640.25;4762041;30;20203;-89
2022/12/20 11:35:35;;;;;;;4.57;2.93;;;;;;;9.37;72.96;95624.59;4767996;30;20336;-87
2022/12/20 11:41:32;;;;;;;4.77;3.20;;;;;;;9.44;72.63;95610.09;4787526;30;20217;-88
2022/12/20 11:44:28;;;;;;;4.23;3.10;;;;;;;9.54;72.25;95616.09;4771084;30;20255;-89
2022/12/20 11:47:03;;;;;;;2.90;2.23;;;;;;;9.51;72.35;95625.91;4780121;30;20291;-90
2022/12/20 11:50:09;;;;;;;3.40;2.47;;;;;;;9.52;72.15;95630.16;4773218;30;20203;-88
2022/12/20 11:53:09;;;;;;;3.83;2.30;;;;;;;9.50;72.24;95629.47;4791660;29;20210;-89
2022/12/20 11:55:48;;;;;;;5.50;2.73;;;;;;;9.52;72.28;95632.72;4774500;30;20302;-87
2022/12/20 11:58:29;;;;;;;4.03;2.70;;;;;;;9.62;71.61;95631.75;4771766;30;20195;-88
2022/12/20 12:01:08;;;;;;;3.47;2.57;;;;;;;9.73;70.74;95625.63;4770986;30;20221;-87
2022/12/20 12:03:36;;;;;;;3.90;2.40;;;;;;;9.73;71.49;95620.44;4742207;30;20252;-87
2022/12/20 12:06:06;;;;;;;5.63;2.53;;;;;;;9.79;71.35;95608.66;4770424;30;20233;-87
2022/12/20 12:08:48;;;;;;;3.83;2.20;;;;;;;9.83;71.12;95610.84;4770239;30;20752;-88
2022/12/20 12:11:23;;;;;;;3.13;2.30;;;;;;;9.79;70.76;95604.28;4757435;30;20664;-88
2022/12/20 12:13:54;;;;;;;3.40;2.67;;;;;;;9.76;70.89;95599.38;4768289;30;20248;-88
2022/12/20 12:16:31;;;;;;;3.70;3.23;;;;;;;9.71;71.79;95601.56;4759645;30;20215;-87
2022/12/20 12:19:02;;;;;;;4.70;4.00;;;;;;;9.68;71.84;95598.47;4756963;30;20201;-88
2022/12/20 12:21:42;;;;;;;4.30;3.87;;;;;;;9.80;71.55;95590.34;4771927;30;20221;-88
2022/12/20 12:24:38;;;;;;;4.53;3.60;;;;;;;9.84;71.35;95590.91;4764803;30;20187;-89
2022/12/20 12:27:16;;;;;;;3.93;3.53;;;;;;;9.96;71.13;95591.53;4761995;30;20212;-88
2022/12/20 12:29:42;;;;;;;4.33;3.93;;;;;;;9.97;71.04;95591.38;4771273;30;20195;-87
2022/12/20 12:32:17;;;;;;;4.07;3.10;;;;;;;10.14;70.86;95587.22;4755289;30;20791;-88
2022/12/20 12:35:16;;;;;;;2.97;2.70;;;;;;;10.19;70.47;95587.63;4754404;30;20194;-86
2022/12/20 12:37:53;;;;;;;4.00;2.60;;;;;;;10.25;70.01;95584.50;4742289;30;20211;-89
2022/12/20 12:40:57;;;;;;;3.80;2.97;;;;;;;10.33;69.24;95571.56;4770556;30;20203;-88
2022/12/20 12:43:55;;;;;;;4.23;3.77;;;;;;;10.38;69.40;95553.81;4765916;30;20210;-88
2022/12/20 12:46:28;;;;;;;4.13;3.60;;;;;;;10.36;69.67;95547.94;4769346;30;20218;-87
2022/12/20 12:49:28;;;;;;;4.33;3.70;;;;;;;10.27;69.43;95537.63;4755607;30;20195;-88
2022/12/20 12:52:02;;;;;;;2.60;2.40;;;;;;;10.15;70.04;95518.78;4756796;30;20263;-87
2022/12/20 12:54:40;;;;;;;2.73;2.43;;;;;;;9.97;70.90;95526.53;4752276;30;20192;-87
2022/12/20 12:57:20;;;;;;;4.57;2.70;;;;;;;9.91;71.00;95533.13;4754580;30;20211;-87
2022/12/20 12:59:51;;;;;;;3.33;2.43;;;;;;;9.81;71.81;95534.16;4771382;30;20202;-88
2022/12/20 13:02:19;;;;;;;4.47;3.30;;;;;;;9.74;71.97;95546.84;4760416;30;20199;-87
2022/12/20 13:05:03;;;;;;;8.53;3.60;;;;;;;9.71;72.10;95551.50;4768249;30;20241;-88
2022/12/20 13:07:31;;;;;;;4.07;3.10;;;;;;;9.58;72.38;95559.59;4764985;30;20195;-90
2022/12/20 13:10:33;;;;;;;2.80;2.60;;;;;;;9.61;71.55;95554.94;4789900;30;20637;-89
2022/12/20 13:13:00;;;;;;;3.83;3.40;;;;;;;9.49;72.40;95563.03;4700522;30;20224;-86
2022/12/20 13:15:25;;;;;;;5.10;3.00;;;;;;;9.50;72.31;95564.66;4700618;30;20227;-87
2022/12/20 13:17:54;;;;;;;4.13;2.83;;;;;;;9.62;71.70;95566.13;4715624;30;20577;-86
2022/12/20 13:20:21;;;;;;;6.13;3.20;;;;;;;9.45;71.90;95559.06;4700882;30;20244;-87
2022/12/20 13:23:09;;;;;;;4.23;2.67;;;;;;;9.61;71.54;95560.13;4701971;30;20202;-88
2022/12/20 13:25:35;;;;;;;4.30;2.83;;;;;;;9.64;71.58;95543.50;4714994;30;20678;-87
2022/12/20 13:28:27;;;;;;;3.07;2.77;;;;;;;9.67;71.14;95545.78;4715766;30;20591;-87
2022/12/20 13:30:55;;;;;;;3.50;2.43;;;;;;;9.56;71.39;95536.41;4715546;30;20210;-85
2022/12/20 13:33:46;;;;;;;11.83;5.53;;;;;;;9.68;71.36;95537.03;4702400;30;20237;-85
2022/12/20 13:37:00;;;;;;;13.77;10.47;;;;;;;9.44;71.68;95532.34;4706714;30;20429;-90
2022/12/20 13:40:02;;;;;;;3.97;3.60;;;;;;;9.61;71.00;95530.78;4698451;30;20213;-89
2022/12/20 13:43:14;;;;;;;4.83;4.10;;;;;;;9.57;71.57;95526.84;4670036;30;20233;-90
2022/12/20 13:46:03;;;;;;;5.33;3.70;;;;;;;9.55;71.70;95515.81;4664085;30;20730;-89
2022/12/20 14:02:48;;;;;;;4.23;3.00;;;;;;;9.59;71.22;95496.41;4781899;30;20605;-87
2022/12/20 14:05:22;;;;;;;4.37;2.83;;;;;;;9.69;71.09;95504.16;4757359;30;20302;-88
2022/12/20 14:11:50;;;;;;;3.47;2.90;;;;;;;9.97;70.05;95497.19;4731264;30;20279;-89
2022/12/20 14:18:17;;;;;;;3.87;2.80;;;;;;;10.14;69.44;95483.44;4667801;30;20211;-88
2022/12/20 14:20:52;;;;;;;3.50;2.70;;;;;;;10.14;69.47;95484.25;4632344;30;20403;-89
2022/12/20 14:23:56;;;;;;;;;;;;;;;;;;;;;
2022/12/20 14:30:22;;;;;;;3.20;2.90;;;;;;;10.03;69.97;95494.03;4596544;31;20734;-89
2022/12/20 14:32:50;;;;;;;3.63;2.63;;;;;;;9.92;69.77;95495.84;4582213;31;20217;-88
2022/12/20 14:35:19;;;;;;;3.67;3.27;;;;;;;9.85;70.29;95494.78;4567009;31;20712;-90
2022/12/20 14:38:06;;;;;;;3.80;3.43;;;;;;;9.82;70.29;95489.91;4581694;31;20206;-88
2022/12/20 14:40:52;;;;;;;5.20;3.83;;;;;;;9.67;70.84;95486.16;4575246;31;20226;-87
2022/12/20 14:46:23;;;;;;;3.40;3.10;;;;;;;9.54;71.73;95486.50;4575882;31;20380;-89
2022/12/20 14:49:22;;;;;;;3.73;2.90;;;;;;;9.56;71.13;95475.97;4589255;31;20790;-89
2022/12/20 14:52:10;;;;;;;4.63;3.10;;;;;;;9.50;71.65;95468.75;4610797;30;20198;-90
2022/12/20 14:55:00;;;;;;;3.50;2.73;;;;;;;9.29;72.48;95487.94;4647142;30;20254;-87
2022/12/20 14:57:41;;;;;;;4.13;2.93;;;;;;;9.33;72.31;95478.91;4679625;30;20203;-88
2022/12/20 15:00:22;;;;;;;5.77;3.37;;;;;;;9.28;71.87;95475.94;4679657;30;20199;-86
2022/12/20 15:03:09;;;;;;;4.20;2.97;;;;;;;9.22;72.60;95473.91;4701435;30;20235;-84
2022/12/20 15:05:35;;;;;;;4.37;3.33;;;;;;;9.22;72.38;95470.50;4750353;29;20223;-83
2022/12/20 15:08:42;;;;;;;4.67;3.70;;;;;;;9.29;71.76;95459.44;4786823;29;20199;-85
2022/12/20 15:11:07;;;;;;;3.93;2.87;;;;;;;9.17;72.34;95454.53;4785924;30;20279;-89
2022/12/20 15:13:35;;;;;;;4.27;3.77;;;;;;;9.11;72.75;95463.72;4787326;30;20207;-88
2022/12/20 15:16:07;;;;;;;5.10;3.00;;;;;;;9.11;72.83;95473.25;4784449;30;20211;-90
2022/12/20 15:19:01;;;;;;;4.50;3.13;;;;;;;9.14;72.48;95473.78;4765662;30;20225;-87
2022/12/20 15:21:27;;;;;;;7.30;4.70;;;;;;;9.14;72.57;95481.56;4781754;30;20194;-89
2022/12/20 15:23:56;;;;;;;3.73;3.07;;;;;;;9.20;72.42;95488.78;4777225;30;20203;-90
2022/12/20 15:26:24;;;;;;;4.17;3.77;;;;;;;9.22;72.38;95484.25;4762216;30;20317;-88
2022/12/20 15:28:49;;;;;;;4.60;3.60;;;;;;;9.03;73.33;95486.91;4754452;30;20188;-89
2022/12/20 15:31:19;;;;;;;7.63;6.03;;;;;;;9.07;73.29;95480.47;4765207;30;20194;-86
2022/12/20 15:37:21;;;;;;;7.30;6.50;;;;;;;8.93;73.51;95480.94;4755241;30;20270;-86
2022/12/20 15:40:22;;;;;;;10.80;8.43;;;;;;;8.94;74.16;95479.97;4732003;30;20215;-88
2022/12/20 15:43:23;;;;;;;13.93;10.00;;;;;;;8.90;74.04;95476.81;4715580;30;20204;-88
2022/12/20 15:50:01;;;;;;;25.77;16.10;;;;;;;8.90;74.31;95486.38;4657613;30;20581;-88
2022/12/20 16:04:23;;;;;;;;;;;;;;;;;;;;;
2022/12/20 16:18:26;;;;;;;8.10;4.80;;;;;;;9.00;73.81;95482.78;4728845;30;20293;-89
2022/12/20 18:05:27;;;;;;;4.30;3.40;;;;;;;8.82;70.80;95431.88;1413132;23;20680;-84
2022/12/20 18:11:58;;;;;;;3.60;2.93;;;;;;;8.73;71.37;95442.09;4815933;29;20205;-88
2022/12/20 20:29:20;;;;;;;8.57;4.40;;;;;;;8.46;80.44;95429.88;4803931;29;20711;-87
2022/12/20 20:32:41;;;;;;;6.47;4.50;;;;;;;8.52;80.68;95420.75;4797775;29;20190;-88
2022/12/20 20:36:18;;;;;;;5.43;3.67;;;;;;;8.62;81.25;95420.72;4804119;29;20183;-88
2022/12/20 20:39:33;;;;;;;7.10;4.33;;;;;;;8.68;82.17;95431.34;4661237;30;20245;-87
2022/12/20 20:59:12;;;;;;;5.83;4.53;;;;;;;8.44;83.22;95436.97;4598147;31;20214;-87
2022/12/20 21:02:26;;;;;;;16.37;9.87;;;;;;;8.40;83.19;95437.38;4622732;31;20253;-87
2022/12/20 21:15:22;;;;;;;7.63;5.57;;;;;;;8.46;85.49;95439.41;4660010;30;20222;-86
2022/12/20 21:18:39;;;;;;;;;;;;;;;;;;;;;
2022/12/20 21:24:47;;;;;;;9.90;6.30;;;;;;;8.47;87.18;95428.09;4613780;31;20213;-87
2022/12/20 21:27:44;;;;;;;;;;;;;;;;;;;;;
2022/12/20 21:31:04;;;;;;;9.77;6.63;;;;;;;8.43;88.05;95417.22;4580486;31;20214;-86
2022/12/20 21:37:05;;;;;;;7.13;6.00;;;;;;;8.41;88.48;95410.56;4590554;31;20257;-87
2022/12/20 21:40:31;;;;;;;;;;;;;;;;;;;;;
2022/12/20 21:57:12;;;;;;;4.40;3.97;;;;;;;8.13;87.24;95405.22;4630352;30;20233;-87
2022/12/20 22:00:00;;;;;;;6.00;4.20;;;;;;;8.14;86.06;95404.25;4647286;30;20307;-87
2022/12/20 22:03:00;;;;;;;5.70;4.23;;;;;;;8.12;86.93;95402.75;4626712;30;20201;-87
2022/12/20 22:05:34;;;;;;;5.93;4.53;;;;;;;8.09;87.31;95413.38;4677849;23;20693;-87
2022/12/20 22:08:23;;;;;;;5.63;4.27;;;;;;;8.02;87.51;95415.66;4773687;29;20195;-87
2022/12/20 22:18:03;;;;;;;6.33;4.87;;;;;;;7.91;88.03;95439.91;4672733;30;20246;-86
2022/12/20 22:20:46;;;;;;;5.97;4.80;;;;;;;7.79;87.53;95435.81;4697925;30;20258;-87
2022/12/20 22:30:57;;;;;;;;;;;;;;;;;;;;;
2022/12/20 22:37:23;;;;;;;;;;;;;;;;;;;;;
2022/12/20 22:40:38;;;;;;;4.97;4.43;;;;;;;7.43;86.95;95418.31;4635884;30;20201;-87
2022/12/20 22:43:34;;;;;;;5.40;4.70;;;;;;;7.39;86.75;95426.28;4640975;30;20217;-87
2022/12/20 22:46:47;;;;;;;6.63;5.13;;;;;;;7.34;86.68;95419.91;4611707;31;20233;-87
2022/12/20 22:50:12;;;;;;;;;;;;;;;;;;;;;
2022/12/20 22:56:34;;;;;;;10.40;5.80;;;;;;;7.37;87.74;95409.31;4622371;30;20228;-87
2022/12/20 23:09:54;;;;;;;;;;;;;;;;;;;;;
2022/12/20 23:19:29;;;;;;;5.50;4.83;;;;;;;7.21;91.13;95401.22;4689271;30;20305;-87
2022/12/20 23:22:47;;;;;;;;;;;;;;;;;;;;;
2022/12/20 23:32:26;;;;;;;4.60;4.13;;;;;;;7.23;94.25;95373.50;4687137;30;20291;-87
2022/12/20 23:37:59;;;;;;;5.63;4.50;;;;;;;7.29;96.66;95372.97;4807892;24;20246;-86
2022/12/20 23:41:29;;;;;;;6.47;4.10;;;;;;;7.31;97.35;95356.38;4764923;30;20226;-87
2022/12/20 23:44:14;;;;;;;6.37;4.60;;;;;;;7.26;97.37;95352.59;4754286;30;20206;-86
2022/12/20 23:46:56;;;;;;;;;;;;;;;;;;;;;
2022/12/20 23:50:01;;;;;;;4.93;3.43;;;;;;;7.48;100.00;95361.88;4808528;29;20200;-86
2022/12/20 23:52:43;;;;;;;4.70;3.40;;;;;;;7.55;100.00;95361.22;4806742;29;20203;-85
2022/12/20 23:55:20;;;;;;;3.43;3.13;;;;;;;7.70;100.00;95360.84;4802458;29;20187;-87
2022/12/20 23:57:56;;;;;;;4.33;3.50;;;;;;;7.79;100.00;95360.84;4801535;29;20238;-87
